sensor_id;sensor_type;location;lat;lon;timestamp;pressure;altitude;pressure_sealevel;temperature;humidity
52469;BME280;38381;53.688;10.776;2023-04-04T00:01:30;102910.56;;;-1.22;73.06
52469;BME280;38381;53.688;10.776;2023-04-04T00:06:30;102902.53;;;-1.26;73.18
52469;BME280;38381;53.688;10.776;2023-04-04T00:11:31;102894.22;;;-1.34;73.25
52469;BME280;38381;53.688;10.776;2023-04-04T00:16:32;102896.34;;;-1.38;73.85
52469;BME280;38381;53.688;10.776;2023-04-04T00:21:33;102881.72;;;-1.41;74.02
52469;BME280;38381;53.688;10.776;2023-04-04T00:26:33;102880.38;;;-1.46;73.86
52469;BME280;38381;53.688;10.776;2023-04-04T00:31:34;102881.25;;;-1.56;74.33
52469;BME280;38381;53.688;10.776;2023-04-04T00:36:34;102874.34;;;-1.57;75.21
52469;BME280;38381;53.688;10.776;2023-04-04T00:41:35;102872.59;;;-1.58;74.79
52469;BME280;38381;53.688;10.776;2023-04-04T00:46:36;102875.72;;;-1.60;74.82
52469;BME280;38381;53.688;10.776;2023-04-04T00:51:36;102873.66;;;-1.65;74.82
52469;BME280;38381;53.688;10.776;2023-04-04T00:56:37;102867.13;;;-1.71;75.33
52469;BME280;38381;53.688;10.776;2023-04-04T01:01:39;102870.56;;;-1.71;75.01
52469;BME280;38381;53.688;10.776;2023-04-04T01:06:40;102862.81;;;-1.72;75.55
52469;BME280;38381;53.688;10.776;2023-04-04T01:11:41;102867.94;;;-1.81;75.36
52469;BME280;38381;53.688;10.776;2023-04-04T01:16:42;102865.41;;;-1.81;75.47
52469;BME280;38381;53.688;10.776;2023-04-04T01:21:43;102855.84;;;-1.84;75.75
52469;BME280;38381;53.688;10.776;2023-04-04T01:26:45;102859.91;;;-1.86;75.86
52469;BME280;38381;53.688;10.776;2023-04-04T01:32:07;102859.03;;;-1.86;76.92
52469;BME280;38381;53.688;10.776;2023-04-04T01:37:32;102855.44;;;-1.88;76.34
52469;BME280;38381;53.688;10.776;2023-04-04T01:42:35;102860.88;;;-1.94;76.26
52469;BME280;38381;53.688;10.776;2023-04-04T01:47:37;102841.28;;;-1.95;76.69
52469;BME280;38381;53.688;10.776;2023-04-04T01:52:38;102840.25;;;-1.97;76.98
52469;BME280;38381;53.688;10.776;2023-04-04T01:57:38;102838.44;;;-1.98;76.74
52469;BME280;38381;53.688;10.776;2023-04-04T02:02:39;102826.22;;;-2.02;77.02
52469;BME280;38381;53.688;10.776;2023-04-04T02:07:39;102817.88;;;-2.10;76.69
52469;BME280;38381;53.688;10.776;2023-04-04T02:12:40;102811.91;;;-2.10;76.85
52469;BME280;38381;53.688;10.776;2023-04-04T02:17:40;102808.63;;;-2.09;77.26
52469;BME280;38381;53.688;10.776;2023-04-04T02:22:53;102800.47;;;-2.15;77.36
52469;BME280;38381;53.688;10.776;2023-04-04T02:27:54;102800.94;;;-2.19;78.40
52469;BME280;38381;53.688;10.776;2023-04-04T02:32:57;102797.94;;;-2.24;78.32
52469;BME280;38381;53.688;10.776;2023-04-04T02:37:59;102791.97;;;-2.25;78.54
52469;BME280;38381;53.688;10.776;2023-04-04T02:42:59;102800.63;;;-2.23;78.82
52469;BME280;38381;53.688;10.776;2023-04-04T02:47:59;102810.09;;;-2.30;77.56
52469;BME280;38381;53.688;10.776;2023-04-04T02:53:02;102814.44;;;-2.29;78.06
52469;BME280;38381;53.688;10.776;2023-04-04T02:58:02;102809.34;;;-2.29;78.40
52469;BME280;38381;53.688;10.776;2023-04-04T03:03:03;102798.56;;;-2.27;78.97
52469;BME280;38381;53.688;10.776;2023-04-04T03:08:04;102806.97;;;-2.28;78.93
52469;BME280;38381;53.688;10.776;2023-04-04T03:13:04;102800.06;;;-2.29;79.11
52469;BME280;38381;53.688;10.776;2023-04-04T03:18:05;102804.19;;;-2.39;79.25
52469;BME280;38381;53.688;10.776;2023-04-04T03:23:05;102805.84;;;-2.40;80.02
52469;BME280;38381;53.688;10.776;2023-04-04T03:28:07;102802.53;;;-2.39;79.65
52469;BME280;38381;53.688;10.776;2023-04-04T03:33:08;102804.81;;;-2.42;80.12
52469;BME280;38381;53.688;10.776;2023-04-04T03:38:09;102803.16;;;-2.41;79.49
52469;BME280;38381;53.688;10.776;2023-04-04T03:43:10;102806.78;;;-2.48;80.04
52469;BME280;38381;53.688;10.776;2023-04-04T03:48:11;102803.91;;;-2.43;80.29
52469;BME280;38381;53.688;10.776;2023-04-04T03:53:12;102800.19;;;-2.46;80.62
52469;BME280;38381;53.688;10.776;2023-04-04T03:58:12;102790.31;;;-2.43;79.84
52469;BME280;38381;53.688;10.776;2023-04-04T04:03:13;102797.66;;;-2.46;79.50
52469;BME280;38381;53.688;10.776;2023-04-04T04:08:13;102794.09;;;-2.48;79.45
52469;BME280;38381;53.688;10.776;2023-04-04T04:13:13;102791.09;;;-2.53;80.16
52469;BME280;38381;53.688;10.776;2023-04-04T04:18:14;102783.47;;;-2.53;80.04
52469;BME280;38381;53.688;10.776;2023-04-04T04:23:14;102789.94;;;-2.56;79.79
52469;BME280;38381;53.688;10.776;2023-04-04T04:28:15;102792.97;;;-2.60;79.64
52469;BME280;38381;53.688;10.776;2023-04-04T04:33:17;102800.75;;;-2.68;79.65
52469;BME280;38381;53.688;10.776;2023-04-04T04:38:18;102800.00;;;-2.67;79.95
52469;BME280;38381;53.688;10.776;2023-04-04T04:43:18;102792.97;;;-2.69;80.12
52469;BME280;38381;53.688;10.776;2023-04-04T04:48:19;102795.25;;;-2.72;80.15
52469;BME280;38381;53.688;10.776;2023-04-04T04:53:19;102788.97;;;-2.76;81.47
52469;BME280;38381;53.688;10.776;2023-04-04T04:58:20;102794.38;;;-2.73;80.97
52469;BME280;38381;53.688;10.776;2023-04-04T05:03:22;102790.31;;;-2.71;80.59
52469;BME280;38381;53.688;10.776;2023-04-04T05:08:23;102795.88;;;-2.75;80.91
52469;BME280;38381;53.688;10.776;2023-04-04T05:13:23;102787.78;;;-2.71;80.93
52469;BME280;38381;53.688;10.776;2023-04-04T05:18:24;102793.91;;;-2.69;80.28
52469;BME280;38381;53.688;10.776;2023-04-04T05:23:26;102789.84;;;-2.67;80.82
52469;BME280;38381;53.688;10.776;2023-04-04T05:28:26;102786.84;;;-2.63;80.43
52469;BME280;38381;53.688;10.776;2023-04-04T05:33:27;102788.47;;;-2.63;81.61
52469;BME280;38381;53.688;10.776;2023-04-04T05:38:27;102788.28;;;-2.56;81.83
52469;BME280;38381;53.688;10.776;2023-04-04T05:43:28;102788.72;;;-2.51;81.70
52469;BME280;38381;53.688;10.776;2023-04-04T05:48:28;102787.03;;;-2.42;81.75
52469;BME280;38381;53.688;10.776;2023-04-04T05:53:29;102781.00;;;-2.34;82.32
52469;BME280;38381;53.688;10.776;2023-04-04T05:58:29;102768.84;;;-2.28;82.64
52469;BME280;38381;53.688;10.776;2023-04-04T06:03:30;102779.97;;;-2.17;82.26
52469;BME280;38381;53.688;10.776;2023-04-04T06:08:30;102776.88;;;-2.04;81.67
52469;BME280;38381;53.688;10.776;2023-04-04T06:13:31;102781.28;;;-1.93;82.18
52469;BME280;38381;53.688;10.776;2023-04-04T06:18:31;102782.09;;;-1.84;81.83
52469;BME280;38381;53.688;10.776;2023-04-04T06:23:32;102775.16;;;-1.76;81.91
52469;BME280;38381;53.688;10.776;2023-04-04T06:28:33;102782.69;;;-1.67;82.27
52469;BME280;38381;53.688;10.776;2023-04-04T06:33:33;102785.59;;;-1.54;81.16
52469;BME280;38381;53.688;10.776;2023-04-04T06:38:33;102787.41;;;-1.43;82.58
52469;BME280;38381;53.688;10.776;2023-04-04T06:43:34;102787.09;;;-1.27;82.02
52469;BME280;38381;53.688;10.776;2023-04-04T06:48:35;102791.97;;;-1.09;81.51
52469;BME280;38381;53.688;10.776;2023-04-04T06:53:36;102789.75;;;-0.96;81.16
52469;BME280;38381;53.688;10.776;2023-04-04T06:58:37;102791.69;;;-0.83;81.29
52469;BME280;38381;53.688;10.776;2023-04-04T07:03:38;102794.53;;;-0.59;81.78
52469;BME280;38381;53.688;10.776;2023-04-04T07:08:39;102784.34;;;-0.39;82.11
52469;BME280;38381;53.688;10.776;2023-04-04T07:13:39;102782.16;;;-0.14;81.55
52469;BME280;38381;53.688;10.776;2023-04-04T07:18:40;102776.69;;;-0.08;81.20
52469;BME280;38381;53.688;10.776;2023-04-04T07:23:40;102770.41;;;0.09;80.77
52469;BME280;38381;53.688;10.776;2023-04-04T07:28:41;102767.28;;;0.33;80.06
52469;BME280;38381;53.688;10.776;2023-04-04T07:33:41;102757.47;;;0.60;76.71
52469;BME280;38381;53.688;10.776;2023-04-04T07:38:42;102755.84;;;0.83;73.86
52469;BME280;38381;53.688;10.776;2023-04-04T07:43:42;102754.53;;;1.10;71.44
52469;BME280;38381;53.688;10.776;2023-04-04T07:48:43;102753.72;;;1.33;69.81
52469;BME280;38381;53.688;10.776;2023-04-04T07:53:43;102760.81;;;1.59;68.21
52469;BME280;38381;53.688;10.776;2023-04-04T07:58:43;102748.63;;;1.90;66.85
52469;BME280;38381;53.688;10.776;2023-04-04T08:03:44;102750.00;;;1.97;66.49
52469;BME280;38381;53.688;10.776;2023-04-04T08:08:45;102755.56;;;2.03;66.31
52469;BME280;38381;53.688;10.776;2023-04-04T08:13:47;102750.88;;;2.33;66.75
52469;BME280;38381;53.688;10.776;2023-04-04T08:18:47;102744.38;;;2.50;66.69
52469;BME280;38381;53.688;10.776;2023-04-04T08:23:48;102742.91;;;2.77;65.67
52469;BME280;38381;53.688;10.776;2023-04-04T08:28:48;102745.31;;;2.87;65.38
52469;BME280;38381;53.688;10.776;2023-04-04T08:33:49;102750.06;;;3.06;65.14
52469;BME280;38381;53.688;10.776;2023-04-04T08:38:49;102742.19;;;3.16;62.17
52469;BME280;38381;53.688;10.776;2023-04-04T08:43:52;102739.03;;;3.32;61.03
52469;BME280;38381;53.688;10.776;2023-04-04T08:48:55;102738.22;;;3.72;60.82
52469;BME280;38381;53.688;10.776;2023-04-04T08:53:56;102734.09;;;3.74;58.81
52469;BME280;38381;53.688;10.776;2023-04-04T08:58:57;102740.22;;;3.89;61.24
52469;BME280;38381;53.688;10.776;2023-04-04T09:03:59;102739.72;;;3.95;59.66
52469;BME280;38381;53.688;10.776;2023-04-04T09:09:01;102732.94;;;4.09;60.06
52469;BME280;38381;53.688;10.776;2023-04-04T09:14:02;102732.81;;;4.47;61.40
52469;BME280;38381;53.688;10.776;2023-04-04T09:19:03;102730.91;;;4.58;61.10
52469;BME280;38381;53.688;10.776;2023-04-04T09:24:04;102719.06;;;4.88;59.54
52469;BME280;38381;53.688;10.776;2023-04-04T09:29:07;102726.34;;;4.95;59.80
52469;BME280;38381;53.688;10.776;2023-04-04T09:34:07;102723.31;;;4.88;59.12
52469;BME280;38381;53.688;10.776;2023-04-04T09:39:08;102718.16;;;5.16;59.27
52469;BME280;38381;53.688;10.776;2023-04-04T09:44:09;102712.16;;;5.30;56.38
52469;BME280;38381;53.688;10.776;2023-04-04T09:49:17;102707.38;;;5.36;55.29
52469;BME280;38381;53.688;10.776;2023-04-04T09:54:22;102703.03;;;5.65;56.86
52469;BME280;38381;53.688;10.776;2023-04-04T09:59:23;102701.97;;;5.76;52.66
52469;BME280;38381;53.688;10.776;2023-04-04T10:04:23;102700.84;;;6.01;53.49
52469;BME280;38381;53.688;10.776;2023-04-04T10:09:27;102696.31;;;6.28;52.70
52469;BME280;38381;53.688;10.776;2023-04-04T10:14:34;102697.06;;;6.11;49.74
52469;BME280;38381;53.688;10.776;2023-04-04T10:19:38;102682.66;;;6.14;49.15
52469;BME280;38381;53.688;10.776;2023-04-04T10:24:38;102681.69;;;6.43;49.58
52469;BME280;38381;53.688;10.776;2023-04-04T10:29:39;102676.53;;;6.60;48.63
52469;BME280;38381;53.688;10.776;2023-04-04T10:34:45;102681.47;;;6.72;46.49
52469;BME280;38381;53.688;10.776;2023-04-04T10:40:20;102674.16;;;6.79;47.58
52469;BME280;38381;53.688;10.776;2023-04-04T10:45:19;102669.72;;;6.77;45.58
52469;BME280;38381;53.688;10.776;2023-04-04T10:50:20;102659.41;;;7.10;45.73
52469;BME280;38381;53.688;10.776;2023-04-04T10:55:22;102661.59;;;7.36;46.68
52469;BME280;38381;53.688;10.776;2023-04-04T11:00:23;102652.06;;;7.35;45.55
52469;BME280;38381;53.688;10.776;2023-04-04T11:05:37;102648.69;;;7.36;45.98
52469;BME280;38381;53.688;10.776;2023-04-04T11:10:44;102641.16;;;7.41;43.93
52469;BME280;38381;53.688;10.776;2023-04-04T11:16:00;102638.66;;;7.60;44.67
52469;BME280;38381;53.688;10.776;2023-04-04T11:21:05;102629.75;;;7.72;45.61
52469;BME280;38381;53.688;10.776;2023-04-04T11:26:06;102618.38;;;7.68;44.92
52469;BME280;38381;53.688;10.776;2023-04-04T11:46:54;102607.38;;;7.72;44.65
52469;BME280;38381;53.688;10.776;2023-04-04T11:51:55;102613.81;;;7.62;45.30
52469;BME280;38381;53.688;10.776;2023-04-04T11:56:56;102601.06;;;7.65;45.25
52469;BME280;38381;53.688;10.776;2023-04-04T12:01:58;102598.19;;;7.77;45.42
52469;BME280;38381;53.688;10.776;2023-04-04T12:07:00;102593.25;;;8.01;46.12
52469;BME280;38381;53.688;10.776;2023-04-04T12:12:01;102586.81;;;8.11;45.23
52469;BME280;38381;53.688;10.776;2023-04-04T12:17:02;102582.41;;;8.28;44.98
52469;BME280;38381;53.688;10.776;2023-04-04T12:22:03;102582.97;;;8.21;45.42
52469;BME280;38381;53.688;10.776;2023-04-04T12:27:05;102573.09;;;8.32;44.46
52469;BME280;38381;53.688;10.776;2023-04-04T12:32:06;102576.59;;;7.77;44.19
52469;BME280;38381;53.688;10.776;2023-04-04T12:37:08;102570.28;;;8.07;45.15
52469;BME280;38381;53.688;10.776;2023-04-04T12:42:10;102568.22;;;8.18;46.14
52469;BME280;38381;53.688;10.776;2023-04-04T12:47:13;102557.16;;;8.60;45.11
52469;BME280;38381;53.688;10.776;2023-04-04T12:52:28;102545.50;;;8.31;44.16
52469;BME280;38381;53.688;10.776;2023-04-04T12:57:32;102538.28;;;8.62;44.42
52469;BME280;38381;53.688;10.776;2023-04-04T13:02:34;102534.41;;;8.53;43.06
52469;BME280;38381;53.688;10.776;2023-04-04T13:07:37;102529.28;;;8.74;42.75
52469;BME280;38381;53.688;10.776;2023-04-04T13:12:58;102520.66;;;8.94;41.22
52469;BME280;38381;53.688;10.776;2023-04-04T13:18:14;102513.69;;;8.51;43.19
52469;BME280;38381;53.688;10.776;2023-04-04T13:23:15;102511.78;;;8.47;43.02
52469;BME280;38381;53.688;10.776;2023-04-04T13:28:16;102503.78;;;8.83;44.77
52469;BME280;38381;53.688;10.776;2023-04-04T13:33:17;102502.22;;;8.65;43.13
52469;BME280;38381;53.688;10.776;2023-04-04T13:38:17;102493.59;;;8.45;43.42
52469;BME280;38381;53.688;10.776;2023-04-04T13:43:18;102488.81;;;8.55;42.13
52469;BME280;38381;53.688;10.776;2023-04-04T13:48:18;102478.94;;;8.86;41.41
52469;BME280;38381;53.688;10.776;2023-04-04T13:53:19;102467.13;;;8.72;43.04
52469;BME280;38381;53.688;10.776;2023-04-04T13:58:19;102467.44;;;8.59;42.47
52469;BME280;38381;53.688;10.776;2023-04-04T14:03:20;102468.00;;;8.52;42.12
52469;BME280;38381;53.688;10.776;2023-04-04T14:08:21;102448.28;;;8.54;42.27
52469;BME280;38381;53.688;10.776;2023-04-04T14:13:21;102451.94;;;8.80;42.98
52469;BME280;38381;53.688;10.776;2023-04-04T14:18:21;102434.56;;;8.56;43.05
52469;BME280;38381;53.688;10.776;2023-04-04T14:23:22;102440.00;;;8.62;41.78
52469;BME280;38381;53.688;10.776;2023-04-04T14:28:23;102434.63;;;8.79;43.36
52469;BME280;38381;53.688;10.776;2023-04-04T14:33:23;102431.72;;;8.50;41.49
52469;BME280;38381;53.688;10.776;2023-04-04T14:38:24;102417.81;;;8.68;41.85
52469;BME280;38381;53.688;10.776;2023-04-04T14:43:24;102412.28;;;8.81;41.55
52469;BME280;38381;53.688;10.776;2023-04-04T14:48:25;102404.41;;;8.57;40.16
52469;BME280;38381;53.688;10.776;2023-04-04T14:53:25;102407.06;;;8.58;40.15
52469;BME280;38381;53.688;10.776;2023-04-04T14:58:26;102400.06;;;8.35;39.51
52469;BME280;38381;53.688;10.776;2023-04-04T15:03:26;102400.78;;;8.52;41.40
52469;BME280;38381;53.688;10.776;2023-04-04T15:08:27;102395.25;;;8.23;40.34
52469;BME280;38381;53.688;10.776;2023-04-04T15:13:27;102400.25;;;8.60;39.28
52469;BME280;38381;53.688;10.776;2023-04-04T15:18:27;102383.88;;;8.60;40.64
52469;BME280;38381;53.688;10.776;2023-04-04T15:23:28;102388.81;;;8.34;40.51
52469;BME280;38381;53.688;10.776;2023-04-04T15:28:28;102385.78;;;8.43;41.79
52469;BME280;38381;53.688;10.776;2023-04-04T15:33:29;102385.22;;;8.31;39.54
52469;BME280;38381;53.688;10.776;2023-04-04T15:38:29;102377.69;;;8.16;39.60
52469;BME280;38381;53.688;10.776;2023-04-04T15:43:30;102376.97;;;7.99;41.22
52469;BME280;38381;53.688;10.776;2023-04-04T15:48:31;102374.47;;;7.81;41.73
52469;BME280;38381;53.688;10.776;2023-04-04T15:53:31;102380.13;;;7.92;42.29
52469;BME280;38381;53.688;10.776;2023-04-04T15:58:32;102369.69;;;7.69;41.58
52469;BME280;38381;53.688;10.776;2023-04-04T16:03:32;102369.78;;;7.72;42.16
52469;BME280;38381;53.688;10.776;2023-04-04T16:08:33;102361.66;;;7.63;41.94
52469;BME280;38381;53.688;10.776;2023-04-04T16:13:33;102367.50;;;7.59;42.21
52469;BME280;38381;53.688;10.776;2023-04-04T16:18:34;102359.28;;;7.68;42.65
52469;BME280;38381;53.688;10.776;2023-04-04T16:23:36;102361.72;;;7.45;42.39
52469;BME280;38381;53.688;10.776;2023-04-04T16:28:38;102361.53;;;7.40;42.01
52469;BME280;38381;53.688;10.776;2023-04-04T16:33:39;102364.88;;;7.20;42.13
52469;BME280;38381;53.688;10.776;2023-04-04T16:38:40;102359.84;;;7.23;42.71
52469;BME280;38381;53.688;10.776;2023-04-04T16:43:40;102355.91;;;7.12;41.92
52469;BME280;38381;53.688;10.776;2023-04-04T16:48:42;102356.78;;;7.12;41.83
52469;BME280;38381;53.688;10.776;2023-04-04T16:53:43;102352.97;;;7.04;41.98
52469;BME280;38381;53.688;10.776;2023-04-04T16:58:44;102351.81;;;6.97;41.36
52469;BME280;38381;53.688;10.776;2023-04-04T17:03:45;102348.28;;;6.77;40.95
52469;BME280;38381;53.688;10.776;2023-04-04T17:08:46;102344.94;;;6.80;40.61
52469;BME280;38381;53.688;10.776;2023-04-04T17:13:48;102346.06;;;6.67;41.36
52469;BME280;38381;53.688;10.776;2023-04-04T17:18:49;102348.84;;;6.54;41.29
52469;BME280;38381;53.688;10.776;2023-04-04T17:23:49;102347.38;;;6.41;42.07
52469;BME280;38381;53.688;10.776;2023-04-04T17:28:50;102345.31;;;6.34;41.76
52469;BME280;38381;53.688;10.776;2023-04-04T17:33:50;102353.47;;;6.25;42.05
52469;BME280;38381;53.688;10.776;2023-04-04T17:38:51;102358.69;;;6.27;42.59
52469;BME280;38381;53.688;10.776;2023-04-04T17:43:51;102351.22;;;6.15;42.87
52469;BME280;38381;53.688;10.776;2023-04-04T17:48:52;102345.13;;;6.13;44.40
52469;BME280;38381;53.688;10.776;2023-04-04T17:53:53;102349.75;;;6.02;44.58
52469;BME280;38381;53.688;10.776;2023-04-04T17:58:54;102354.75;;;5.99;45.17
52469;BME280;38381;53.688;10.776;2023-04-04T18:03:54;102355.53;;;5.81;45.25
52469;BME280;38381;53.688;10.776;2023-04-04T18:08:55;102354.81;;;5.68;45.78
52469;BME280;38381;53.688;10.776;2023-04-04T18:13:55;102353.84;;;5.65;44.84
52469;BME280;38381;53.688;10.776;2023-04-04T18:18:56;102349.59;;;5.50;45.82
52469;BME280;38381;53.688;10.776;2023-04-04T18:23:56;102358.66;;;5.43;46.19
52469;BME280;38381;53.688;10.776;2023-04-04T18:28:57;102356.75;;;5.39;46.33
52469;BME280;38381;53.688;10.776;2023-04-04T18:33:57;102361.31;;;5.28;47.06
52469;BME280;38381;53.688;10.776;2023-04-04T18:38:58;102368.38;;;5.16;47.58
52469;BME280;38381;53.688;10.776;2023-04-04T18:44:00;102361.13;;;5.09;46.31
52469;BME280;38381;53.688;10.776;2023-04-04T18:49:00;102366.56;;;4.98;47.10
52469;BME280;38381;53.688;10.776;2023-04-04T18:54:00;102359.06;;;4.87;48.04
52469;BME280;38381;53.688;10.776;2023-04-04T18:59:01;102366.19;;;4.76;50.31
52469;BME280;38381;53.688;10.776;2023-04-04T19:04:02;102361.75;;;4.73;51.89
52469;BME280;38381;53.688;10.776;2023-04-04T19:09:03;102366.03;;;4.58;52.63
52469;BME280;38381;53.688;10.776;2023-04-04T19:14:03;102365.59;;;4.50;53.62
52469;BME280;38381;53.688;10.776;2023-04-04T19:19:04;102361.59;;;4.40;53.23
52469;BME280;38381;53.688;10.776;2023-04-04T19:24:04;102360.00;;;4.28;53.84
52469;BME280;38381;53.688;10.776;2023-04-04T19:29:06;102365.66;;;4.07;54.97
52469;BME280;38381;53.688;10.776;2023-04-04T19:34:07;102365.41;;;3.88;56.90
52469;BME280;38381;53.688;10.776;2023-04-04T19:39:09;102355.63;;;3.67;58.11
52469;BME280;38381;53.688;10.776;2023-04-04T19:44:17;102358.94;;;3.51;59.00
52469;BME280;38381;53.688;10.776;2023-04-04T19:49:19;102357.69;;;3.31;59.92
52469;BME280;38381;53.688;10.776;2023-04-04T19:54:30;102355.31;;;3.06;59.58
52469;BME280;38381;53.688;10.776;2023-04-04T20:04:49;102359.59;;;2.79;59.04
52469;BME280;38381;53.688;10.776;2023-04-04T20:09:50;102356.22;;;2.67;60.33
52469;BME280;38381;53.688;10.776;2023-04-04T20:14:57;102363.19;;;2.56;60.67
52469;BME280;38381;53.688;10.776;2023-04-04T20:19:58;102359.56;;;2.39;63.06
52469;BME280;38381;53.688;10.776;2023-04-04T20:24:59;102363.69;;;1.98;61.66
52469;BME280;38381;53.688;10.776;2023-04-04T20:29:59;102366.53;;;1.90;63.39
52469;BME280;38381;53.688;10.776;2023-04-04T20:35:00;102372.22;;;1.86;62.44
52469;BME280;38381;53.688;10.776;2023-04-04T20:40:08;102365.50;;;1.74;62.93
52469;BME280;38381;53.688;10.776;2023-04-04T20:55:16;102355.94;;;1.47;64.63
52469;BME280;38381;53.688;10.776;2023-04-04T21:05:37;102359.88;;;1.30;66.67
52469;BME280;38381;53.688;10.776;2023-04-04T21:10:48;102359.91;;;1.18;66.05
52469;BME280;38381;53.688;10.776;2023-04-04T21:15:49;102354.72;;;1.05;65.97
52469;BME280;38381;53.688;10.776;2023-04-04T21:26:03;102355.41;;;0.90;65.41
52469;BME280;38381;53.688;10.776;2023-04-04T21:31:16;102353.75;;;0.79;66.86
52469;BME280;38381;53.688;10.776;2023-04-04T21:36:27;102349.19;;;0.75;66.46
52469;BME280;38381;53.688;10.776;2023-04-04T21:41:34;102349.44;;;0.66;66.69
52469;BME280;38381;53.688;10.776;2023-04-04T21:46:39;102340.75;;;0.40;67.09
52469;BME280;38381;53.688;10.776;2023-04-04T21:51:41;102334.88;;;0.42;68.26
52469;BME280;38381;53.688;10.776;2023-04-04T21:56:42;102330.34;;;0.37;69.07
52469;BME280;38381;53.688;10.776;2023-04-04T22:01:42;102324.22;;;0.35;68.38
52469;BME280;38381;53.688;10.776;2023-04-04T22:06:43;102323.56;;;0.14;67.71
52469;BME280;38381;53.688;10.776;2023-04-04T22:11:43;102316.44;;;0.10;69.20
52469;BME280;38381;53.688;10.776;2023-04-04T22:16:44;102312.50;;;-0.20;69.29
52469;BME280;38381;53.688;10.776;2023-04-04T22:21:44;102312.63;;;-0.18;70.75
52469;BME280;38381;53.688;10.776;2023-04-04T22:26:46;102306.97;;;-0.14;70.62
52469;BME280;38381;53.688;10.776;2023-04-04T22:31:46;102307.84;;;-0.14;70.25
52469;BME280;38381;53.688;10.776;2023-04-04T22:36:46;102304.97;;;-0.18;70.90
52469;BME280;38381;53.688;10.776;2023-04-04T22:41:47;102307.69;;;-0.39;71.07
52469;BME280;38381;53.688;10.776;2023-04-04T22:46:47;102298.56;;;-0.47;71.73
52469;BME280;38381;53.688;10.776;2023-04-04T22:51:47;102299.56;;;-0.45;72.35
52469;BME280;38381;53.688;10.776;2023-04-04T22:56:48;102299.78;;;-0.42;71.33
52469;BME280;38381;53.688;10.776;2023-04-04T23:01:48;102295.56;;;-0.53;70.47
52469;BME280;38381;53.688;10.776;2023-04-04T23:06:49;102300.88;;;-0.50;71.48
52469;BME280;38381;53.688;10.776;2023-04-04T23:11:49;102300.72;;;-0.64;72.58
52469;BME280;38381;53.688;10.776;2023-04-04T23:16:49;102301.47;;;-0.65;72.34
52469;BME280;38381;53.688;10.776;2023-04-04T23:21:51;102293.63;;;-0.68;72.71
52469;BME280;38381;53.688;10.776;2023-04-04T23:26:52;102289.06;;;-0.72;72.76
52469;BME280;38381;53.688;10.776;2023-04-04T23:31:52;102295.44;;;-0.77;73.03
52469;BME280;38381;53.688;10.776;2023-04-04T23:36:53;102284.03;;;-0.82;73.01
52469;BME280;38381;53.688;10.776;2023-04-04T23:41:53;102286.09;;;-0.88;73.02
52469;BME280;38381;53.688;10.776;2023-04-04T23:46:54;102288.41;;;-0.91;71.80
52469;BME280;38381;53.688;10.776;2023-04-04T23:51:54;102290.25;;;-1.00;72.42
52469;BME280;38381;53.688;10.776;2023-04-04T23:56:55;102291.66;;;-1.04;72.64
